createdAt,value
2023-02-16T00:00:05.761Z,957.75
2023-02-16T00:00:17.748Z,957.75
2023-02-16T00:07:37.804Z,957.81
2023-02-16T00:07:49.765Z,957.80
2023-02-16T00:08:00.773Z,957.79
2023-02-16T00:08:12.742Z,957.79
2023-02-16T00:08:23.766Z,957.79
2023-02-16T00:08:34.770Z,957.79
2023-02-16T00:08:46.745Z,957.79
2023-02-16T00:08:57.736Z,957.79
2023-02-16T00:09:08.741Z,957.79
2023-02-16T00:09:20.753Z,957.79
2023-02-16T00:09:31.765Z,957.80
2023-02-16T00:09:42.751Z,957.80
2023-02-16T00:09:53.764Z,957.80
2023-02-16T00:10:04.753Z,957.79
2023-02-16T00:10:16.760Z,957.79
2023-02-16T00:10:27.752Z,957.80
2023-02-16T00:10:39.754Z,957.80
2023-02-16T00:10:50.766Z,957.80
2023-02-16T00:11:02.144Z,957.81
2023-02-16T00:11:12.750Z,957.81
2023-02-16T00:11:24.763Z,957.81
2023-02-16T00:11:35.784Z,957.80
2023-02-16T00:11:47.752Z,957.80
2023-02-16T00:11:58.762Z,957.81
2023-02-16T00:12:09.767Z,957.81
2023-02-16T00:12:20.761Z,957.82
2023-02-16T00:12:31.766Z,957.83
2023-02-16T00:12:42.766Z,957.83
2023-02-16T00:12:53.755Z,957.83
2023-02-16T00:13:05.635Z,957.83
2023-02-16T00:13:17.591Z,957.84
2023-02-16T00:13:28.596Z,957.85
2023-02-16T00:13:39.602Z,957.85
2023-02-16T00:13:51.576Z,957.86
2023-02-16T00:14:02.579Z,957.88
2023-02-16T00:14:13.592Z,957.89
2023-02-16T00:14:24.594Z,957.90
2023-02-16T00:14:35.612Z,957.91
2023-02-16T00:14:47.593Z,957.91
2023-02-16T00:14:58.601Z,957.91
2023-02-16T00:15:09.597Z,957.91
2023-02-16T00:15:20.606Z,957.90
2023-02-16T00:15:32.619Z,957.91
2023-02-16T00:15:44.621Z,957.91
2023-02-16T00:15:56.646Z,957.91
2023-02-16T00:16:08.670Z,957.91
2023-02-16T00:16:20.708Z,957.91
2023-02-16T00:16:32.622Z,957.91
2023-02-16T00:16:44.611Z,957.91
2023-02-16T00:16:56.580Z,957.92
2023-02-16T00:17:08.134Z,957.92
2023-02-16T00:17:18.588Z,957.92
2023-02-16T00:17:29.589Z,957.92
2023-02-16T00:17:40.586Z,957.93
2023-02-16T00:17:52.583Z,957.93
2023-02-16T00:18:03.585Z,957.94
2023-02-16T00:18:14.582Z,957.94
2023-02-16T00:18:25.585Z,957.94
2023-02-16T00:18:36.575Z,957.94
2023-02-16T00:18:47.569Z,957.95
2023-02-16T00:18:58.562Z,957.95
2023-02-16T00:19:09.563Z,957.94
2023-02-16T00:19:20.554Z,957.94
2023-02-16T00:19:31.546Z,957.94
2023-02-16T00:19:42.560Z,957.94
2023-02-16T00:19:53.556Z,957.94
2023-02-16T00:20:04.604Z,957.93
2023-02-16T00:20:15.612Z,957.93
2023-02-16T00:20:26.603Z,957.92
2023-02-16T00:20:38.578Z,957.92
2023-02-16T00:20:49.572Z,957.92
2023-02-16T00:21:00.615Z,957.91
2023-02-16T00:21:12.621Z,957.90
2023-02-16T00:21:24.591Z,957.89
2023-02-16T00:21:35.583Z,957.89
2023-02-16T00:21:46.596Z,957.88
2023-02-16T00:21:57.608Z,957.88
2023-02-16T00:22:08.600Z,957.88
2023-02-16T00:22:19.604Z,957.87
2023-02-16T00:22:30.602Z,957.87
2023-02-16T00:22:41.596Z,957.87
2023-02-16T00:22:52.602Z,957.86
2023-02-16T00:23:03.616Z,957.86
2023-02-16T00:23:15.577Z,957.85
2023-02-16T00:23:26.577Z,957.84
2023-02-16T00:23:37.583Z,957.83
2023-02-16T00:23:48.590Z,957.83
2023-02-16T00:23:59.589Z,957.82
2023-02-16T00:24:10.607Z,957.82
2023-02-16T00:24:21.611Z,957.82
2023-02-16T00:24:32.625Z,957.82
2023-02-16T00:24:44.597Z,957.82
2023-02-16T00:24:55.622Z,957.82
2023-02-16T00:25:07.586Z,957.82
2023-02-16T00:25:18.580Z,957.82
2023-02-16T00:25:29.599Z,957.82
2023-02-16T00:25:40.595Z,957.82
2023-02-16T00:25:51.613Z,957.82
2023-02-16T00:26:03.588Z,957.81
2023-02-16T00:26:14.610Z,957.81
2023-02-16T00:26:26.582Z,957.81
2023-02-16T00:26:37.608Z,957.81
2023-02-16T00:26:48.612Z,957.81
2023-02-16T00:26:59.614Z,957.81
2023-02-16T00:27:11.579Z,957.80
2023-02-16T00:27:23.591Z,957.80
2023-02-16T00:27:34.607Z,957.80
2023-02-16T00:27:46.592Z,957.80
2023-02-16T00:27:57.576Z,957.80
2023-02-16T00:28:08.595Z,957.80
2023-02-16T00:28:19.612Z,957.80
2023-02-16T00:28:30.607Z,957.80
2023-02-16T00:28:41.607Z,957.79
2023-02-16T00:28:53.583Z,957.79
2023-02-16T00:29:04.593Z,957.79
2023-02-16T00:29:15.597Z,957.79
2023-02-16T00:29:26.606Z,957.78
2023-02-16T00:29:37.632Z,957.77
2023-02-16T00:29:49.596Z,957.77
2023-02-16T00:30:00.623Z,957.77
2023-02-16T00:30:11.609Z,957.77
2023-02-16T00:30:22.640Z,957.77
2023-02-16T00:30:34.649Z,957.77
2023-02-16T00:30:46.682Z,957.78
2023-02-16T00:30:57.677Z,957.78
2023-02-16T00:31:09.801Z,957.78
2023-02-16T00:31:20.705Z,957.78
2023-02-16T00:31:31.705Z,957.78
2023-02-16T00:31:42.713Z,957.77
2023-02-16T00:31:53.645Z,957.77
2023-02-16T00:32:05.816Z,957.77
2023-02-16T00:32:16.720Z,957.77
2023-02-16T00:32:27.708Z,957.77
2023-02-16T00:32:39.604Z,957.77
2023-02-16T00:32:50.594Z,957.77
2023-02-16T00:33:01.607Z,957.76
2023-02-16T00:33:12.627Z,957.76
2023-02-16T00:33:24.603Z,957.76
2023-02-16T00:33:35.601Z,957.76
2023-02-16T00:33:46.607Z,957.76
2023-02-16T00:33:57.600Z,957.75
2023-02-16T00:34:09.616Z,957.75
2023-02-16T00:34:20.616Z,957.74
2023-02-16T00:34:31.613Z,957.74
2023-02-16T00:34:42.599Z,957.73
2023-02-16T00:34:54.581Z,957.73
2023-02-16T00:35:05.592Z,957.73
2023-02-16T00:35:17.606Z,957.74
2023-02-16T00:35:28.601Z,957.74
2023-02-16T00:35:39.594Z,957.74
2023-02-16T00:35:50.606Z,957.74
2023-02-16T00:36:01.600Z,957.74
2023-02-16T00:36:13.589Z,957.75
2023-02-16T00:36:24.600Z,957.75
2023-02-16T00:36:35.600Z,957.75
2023-02-16T00:36:47.581Z,957.76
2023-02-16T00:36:58.592Z,957.75
2023-02-16T00:37:09.582Z,957.75
2023-02-16T00:42:04.078Z,957.80
2023-02-16T00:42:15.747Z,957.79
2023-02-16T00:42:26.817Z,957.80
2023-02-16T00:42:38.798Z,957.80
2023-02-16T00:42:50.762Z,957.80
2023-02-16T00:43:01.773Z,957.81
2023-02-16T00:43:12.772Z,957.81
2023-02-16T00:43:24.754Z,957.82
2023-02-16T00:43:36.762Z,957.82
2023-02-16T00:43:47.766Z,957.81
2023-02-16T00:50:23.592Z,957.83
2023-02-16T00:50:34.587Z,957.82
2023-02-16T00:50:45.610Z,957.82
2023-02-16T00:50:56.617Z,957.83
2023-02-16T00:51:23.849Z,957.83
2023-02-16T00:51:26.021Z,957.83
2023-02-16T00:51:31.581Z,957.84
2023-02-16T00:51:42.600Z,957.83
2023-02-16T00:51:53.607Z,957.84
2023-02-16T00:52:04.614Z,957.84
2023-02-16T00:52:16.589Z,957.84
2023-02-16T00:52:28.619Z,957.83
2023-02-16T00:52:39.620Z,957.82
2023-02-16T00:52:51.622Z,957.82
2023-02-16T00:53:02.627Z,957.82
2023-02-16T00:53:14.599Z,957.83
2023-02-16T00:53:25.616Z,957.84
2023-02-16T00:53:36.614Z,957.85
2023-02-16T00:53:48.606Z,957.86
2023-02-16T00:54:00.599Z,957.86
2023-02-16T00:54:11.605Z,957.85
2023-02-16T00:54:22.600Z,957.85
2023-02-16T00:54:33.595Z,957.85
2023-02-16T00:54:44.598Z,957.84
2023-02-16T00:54:55.619Z,957.83
2023-02-16T00:55:07.625Z,957.83
2023-02-16T00:55:19.592Z,957.83
2023-02-16T00:55:30.595Z,957.83
2023-02-16T00:55:41.596Z,957.84
2023-02-16T00:55:52.599Z,957.84
2023-02-16T00:56:03.602Z,957.85
2023-02-16T00:56:15.603Z,957.85
2023-02-16T00:56:26.600Z,957.85
2023-02-16T00:56:37.610Z,957.85
2023-02-16T00:56:48.613Z,957.86
2023-02-16T00:56:59.607Z,957.86
2023-02-16T00:57:10.609Z,957.86
2023-02-16T00:57:21.618Z,957.85
2023-02-16T00:57:33.591Z,957.85
2023-02-16T00:57:44.607Z,957.85
2023-02-16T00:57:55.625Z,957.85
2023-02-16T00:58:07.610Z,957.85
2023-02-16T00:58:18.623Z,957.84
2023-02-16T00:58:30.596Z,957.84
2023-02-16T00:58:41.606Z,957.84
2023-02-16T00:58:53.607Z,957.84
2023-02-16T00:59:04.617Z,957.84
2023-02-16T00:59:16.583Z,957.85
2023-02-16T00:59:28.589Z,957.85
2023-02-16T00:59:39.588Z,957.85
2023-02-16T00:59:50.600Z,957.85
2023-02-16T01:00:01.612Z,957.84
2023-02-16T01:00:12.606Z,957.83
2023-02-16T01:00:24.586Z,957.84
2023-02-16T01:00:35.587Z,957.84
2023-02-16T01:00:46.591Z,957.85
2023-02-16T01:00:58.586Z,957.85
2023-02-16T01:01:09.677Z,957.84
2023-02-16T01:01:21.616Z,957.84
2023-02-16T01:01:33.664Z,957.84
2023-02-16T01:01:45.668Z,957.84
2023-02-16T01:01:57.763Z,957.85
2023-02-16T01:02:09.654Z,957.85
2023-02-16T01:02:21.626Z,957.85
2023-02-16T01:02:33.616Z,957.84
2023-02-16T01:02:44.608Z,957.83
2023-02-16T01:02:55.619Z,957.84
2023-02-16T01:03:06.606Z,957.84
2023-02-16T01:03:18.616Z,957.84
2023-02-16T01:03:29.610Z,957.84
2023-02-16T01:03:41.595Z,957.84
2023-02-16T01:03:52.588Z,957.83
2023-02-16T01:04:03.631Z,957.83
2023-02-16T01:04:14.596Z,957.83
2023-02-16T01:04:25.649Z,957.83
2023-02-16T01:04:36.637Z,957.83
2023-02-16T01:04:47.619Z,957.83
2023-02-16T01:04:58.562Z,957.83
2023-02-16T01:05:09.582Z,957.84
2023-02-16T01:05:20.582Z,957.84
2023-02-16T01:05:31.574Z,957.84
2023-02-16T01:05:42.584Z,957.84
2023-02-16T01:05:53.585Z,957.84
2023-02-16T01:06:04.605Z,957.85
2023-02-16T01:06:16.592Z,957.85
2023-02-16T01:06:27.587Z,957.85
2023-02-16T01:06:38.607Z,957.85
2023-02-16T01:06:49.608Z,957.85
2023-02-16T01:07:00.616Z,957.85
2023-02-16T01:07:12.580Z,957.85
2023-02-16T01:07:23.584Z,957.85
2023-02-16T01:07:35.574Z,957.85
2023-02-16T01:07:46.572Z,957.85
2023-02-16T01:07:57.562Z,957.85
2023-02-16T01:08:08.568Z,957.86
2023-02-16T01:08:19.573Z,957.85
2023-02-16T01:08:30.582Z,957.86
2023-02-16T01:08:41.562Z,957.86
2023-02-16T01:08:52.566Z,957.85
2023-02-16T01:09:03.575Z,957.85
2023-02-16T01:09:14.566Z,957.86
2023-02-16T01:09:25.574Z,957.86
2023-02-16T01:09:36.584Z,957.86
2023-02-16T01:09:47.598Z,957.85
2023-02-16T01:09:59.603Z,957.86
2023-02-16T01:10:10.588Z,957.85
2023-02-16T01:10:21.582Z,957.85
2023-02-16T01:10:32.598Z,957.85
2023-02-16T01:10:43.598Z,957.84
2023-02-16T01:10:54.611Z,957.84
2023-02-16T01:11:06.106Z,957.84
2023-02-16T01:11:16.613Z,957.84
2023-02-16T01:11:27.635Z,957.83
2023-02-16T01:11:39.601Z,957.83
2023-02-16T01:11:50.611Z,957.83
2023-02-16T01:12:01.618Z,957.83
2023-02-16T01:12:13.578Z,957.82
2023-02-16T01:12:24.583Z,957.83
2023-02-16T01:12:35.590Z,957.83
2023-02-16T01:12:46.650Z,957.83
2023-02-16T01:12:57.581Z,957.83
2023-02-16T01:13:08.593Z,957.83
2023-02-16T01:13:19.588Z,957.84
2023-02-16T01:13:30.614Z,957.84
2023-02-16T01:13:41.613Z,957.83
2023-02-16T01:13:53.620Z,957.84
2023-02-16T01:14:05.581Z,957.84
2023-02-16T01:14:16.590Z,957.84
2023-02-16T01:14:28.623Z,957.84
2023-02-16T01:14:40.600Z,957.84
2023-02-16T01:14:51.623Z,957.84
2023-02-16T01:15:02.593Z,957.84
2023-02-16T01:15:13.607Z,957.84
2023-02-16T01:15:25.590Z,957.83
2023-02-16T01:15:36.645Z,957.83
2023-02-16T01:15:48.644Z,957.83
2023-02-16T01:16:00.717Z,957.83
2023-02-16T01:16:12.679Z,957.82
2023-02-16T01:16:23.566Z,957.82
2023-02-16T01:16:34.572Z,957.82
2023-02-16T01:16:45.582Z,957.82
2023-02-16T01:16:56.581Z,957.81
2023-02-16T01:17:07.593Z,957.81
2023-02-16T01:17:18.625Z,957.81
2023-02-16T01:17:30.594Z,957.80
2023-02-16T01:17:41.607Z,957.80
2023-02-16T01:17:53.598Z,957.80
2023-02-16T01:18:04.656Z,957.79
2023-02-16T01:18:16.624Z,957.79
2023-02-16T01:18:28.605Z,957.79
2023-02-16T01:18:39.605Z,957.78
2023-02-16T01:18:51.591Z,957.78
2023-02-16T01:19:02.599Z,957.77
2023-02-16T01:19:14.890Z,957.77
2023-02-16T01:19:25.590Z,957.77
2023-02-16T01:19:36.602Z,957.77
2023-02-16T01:19:47.613Z,957.77
2023-02-16T01:19:59.586Z,957.77
2023-02-16T01:20:10.600Z,957.76
2023-02-16T01:20:21.609Z,957.76
2023-02-16T01:20:33.585Z,957.76
2023-02-16T01:20:44.610Z,957.76
2023-02-16T01:20:56.581Z,957.76
2023-02-16T01:21:07.601Z,957.75
2023-02-16T01:21:18.610Z,957.75
2023-02-16T01:21:30.584Z,957.74
2023-02-16T01:21:41.579Z,957.74
2023-02-16T01:21:52.583Z,957.73
2023-02-16T01:22:03.570Z,957.73
2023-02-16T01:22:14.574Z,957.73
2023-02-16T01:22:25.582Z,957.73
2023-02-16T01:22:36.597Z,957.73
2023-02-16T01:22:47.609Z,957.73
2023-02-16T01:22:58.610Z,957.72
2023-02-16T01:23:10.579Z,957.72
2023-02-16T01:23:21.594Z,957.71
2023-02-16T01:23:32.600Z,957.72
2023-02-16T01:23:43.613Z,957.72
2023-02-16T01:23:55.603Z,957.71
2023-02-16T01:24:06.613Z,957.71
2023-02-16T01:24:18.590Z,957.71
2023-02-16T01:24:29.600Z,957.71
2023-02-16T01:24:40.599Z,957.71
2023-02-16T01:24:51.610Z,957.70
2023-02-16T01:36:46.823Z,957.62
2023-02-16T01:36:58.780Z,957.61
2023-02-16T01:37:10.759Z,957.61
2023-02-16T01:37:21.765Z,957.60
2023-02-16T01:37:32.757Z,957.60
2023-02-16T01:37:44.752Z,957.60
2023-02-16T01:37:55.765Z,957.60
2023-02-16T01:38:06.793Z,957.59
2023-02-16T01:38:18.893Z,957.59
2023-02-16T01:38:30.771Z,957.59
2023-02-16T01:38:42.744Z,957.59
2023-02-16T01:38:53.774Z,957.59
2023-02-16T01:39:05.765Z,957.59
2023-02-16T01:39:17.773Z,957.59
2023-02-16T01:39:28.772Z,957.59
2023-02-16T01:39:39.768Z,957.59
2023-02-16T01:39:50.769Z,957.58
2023-02-16T01:40:02.755Z,957.58
2023-02-16T01:40:13.754Z,957.58
2023-02-16T01:40:24.755Z,957.58
2023-02-16T01:40:35.757Z,957.58
2023-02-16T01:40:46.751Z,957.59
2023-02-16T01:40:57.779Z,957.58
2023-02-16T01:41:09.747Z,957.58
2023-02-16T01:41:21.751Z,957.58
2023-02-16T01:41:33.742Z,957.58
2023-02-16T01:41:44.751Z,957.58
2023-02-16T01:41:55.756Z,957.57
2023-02-16T01:42:06.753Z,957.57
2023-02-16T01:42:17.761Z,957.57
2023-02-16T01:42:28.814Z,957.56
2023-02-16T01:42:40.787Z,957.56
2023-02-16T01:42:52.798Z,957.55
2023-02-16T01:43:04.757Z,957.55
2023-02-16T01:43:15.764Z,957.55
2023-02-16T01:43:26.764Z,957.55
2023-02-16T01:43:38.784Z,957.55
2023-02-16T01:43:50.758Z,957.55
2023-02-16T01:44:01.760Z,957.55
2023-02-16T01:44:12.745Z,957.55
2023-02-16T01:44:23.765Z,957.55
2023-02-16T01:44:34.755Z,957.55
2023-02-16T01:44:45.763Z,957.55
2023-02-16T01:44:57.745Z,957.55
2023-02-16T01:45:08.754Z,957.55
2023-02-16T01:45:20.757Z,957.55
2023-02-16T01:45:31.763Z,957.55
2023-02-16T01:45:42.775Z,957.55
2023-02-16T01:45:54.758Z,957.55
2023-02-16T01:46:05.768Z,957.55
2023-02-16T01:46:17.782Z,957.54
2023-02-16T01:46:29.846Z,957.54
2023-02-16T01:46:40.789Z,957.54
2023-02-16T01:46:51.866Z,957.54
2023-02-16T01:47:02.736Z,957.54
2023-02-16T01:47:13.757Z,957.54
2023-02-16T01:47:24.758Z,957.54
2023-02-16T01:47:36.751Z,957.54
2023-02-16T01:47:47.761Z,957.55
2023-02-16T01:47:58.774Z,957.54
2023-02-16T01:48:09.759Z,957.54
2023-02-16T01:48:20.773Z,957.54
2023-02-16T01:48:32.777Z,957.53
2023-02-16T01:48:44.757Z,957.53
2023-02-16T01:48:55.762Z,957.53
2023-02-16T01:49:06.762Z,957.53
2023-02-16T01:49:18.731Z,957.53
2023-02-16T01:49:29.749Z,957.53
2023-02-16T01:49:40.759Z,957.53
2023-02-16T01:49:51.764Z,957.53
2023-02-16T01:50:03.612Z,957.53
2023-02-16T01:50:14.766Z,957.53
2023-02-16T01:50:25.770Z,957.52
2023-02-16T01:50:36.765Z,957.52
2023-02-16T01:50:47.772Z,957.52
2023-02-16T01:50:59.766Z,957.52
2023-02-16T01:51:10.764Z,957.52
2023-02-16T01:51:21.751Z,957.52
2023-02-16T01:51:32.771Z,957.51
2023-02-16T01:51:44.766Z,957.51
2023-02-16T01:51:56.755Z,957.51
2023-02-16T01:52:07.784Z,957.51
2023-02-16T01:52:18.790Z,957.51
2023-02-16T01:52:30.772Z,957.51
2023-02-16T01:52:42.764Z,957.51
2023-02-16T01:52:54.751Z,957.50
2023-02-16T01:53:06.749Z,957.50
2023-02-16T01:53:17.755Z,957.49
2023-02-16T01:53:28.754Z,957.49
2023-02-16T01:53:39.764Z,957.49
2023-02-16T01:53:50.772Z,957.49
2023-02-16T01:54:01.765Z,957.49
2023-02-16T01:54:12.766Z,957.49
2023-02-16T01:54:23.777Z,957.49
2023-02-16T01:54:35.749Z,957.49
2023-02-16T01:54:47.781Z,957.49
2023-02-16T01:54:59.750Z,957.48
2023-02-16T01:55:10.767Z,957.48
2023-02-16T01:55:22.760Z,957.48
2023-02-16T01:55:33.757Z,957.48
2023-02-16T01:55:44.795Z,957.48
2023-02-16T01:55:56.773Z,957.48
2023-02-16T01:56:08.739Z,957.48
2023-02-16T01:56:19.773Z,957.47
2023-02-16T01:56:31.744Z,957.46
2023-02-16T01:56:42.764Z,957.46
2023-02-16T01:56:53.776Z,957.46
2023-02-16T01:57:05.752Z,957.46
2023-02-16T01:57:16.761Z,957.45
2023-02-16T01:57:28.743Z,957.44
2023-02-16T01:57:40.749Z,957.43
2023-02-16T01:57:51.753Z,957.43
2023-02-16T01:58:03.773Z,957.42
2023-02-16T01:58:14.769Z,957.42
2023-02-16T01:58:26.741Z,957.42
2023-02-16T01:58:37.757Z,957.42
2023-02-16T01:58:49.772Z,957.42
2023-02-16T01:59:00.764Z,957.42
2023-02-16T01:59:12.779Z,957.42
2023-02-16T01:59:24.746Z,957.42
2023-02-16T01:59:35.756Z,957.42
2023-02-16T01:59:46.754Z,957.42
2023-02-16T01:59:57.748Z,957.41
2023-02-16T02:00:08.754Z,957.41
2023-02-16T02:00:20.772Z,957.40
2023-02-16T02:00:32.746Z,957.39
2023-02-16T02:02:50.868Z,957.36
2023-02-16T02:03:02.782Z,957.35
2023-02-16T02:03:14.766Z,957.35
2023-02-16T02:03:25.771Z,957.34
2023-02-16T02:03:36.784Z,957.34
2023-02-16T02:03:48.755Z,957.34
2023-02-16T02:03:59.768Z,957.33
2023-02-16T02:04:11.744Z,957.33
2023-02-16T02:04:22.769Z,957.33
2023-02-16T02:04:33.790Z,957.32
2023-02-16T02:04:45.762Z,957.32
2023-02-16T02:04:56.758Z,957.31
2023-02-16T02:05:07.763Z,957.30
2023-02-16T02:05:18.741Z,957.29
2023-02-16T02:05:30.753Z,957.28
2023-02-16T02:05:41.764Z,957.27
2023-02-16T02:05:53.772Z,957.26
2023-02-16T02:06:05.793Z,957.26
2023-02-16T02:06:17.762Z,957.25
2023-02-16T02:06:29.749Z,957.23
2023-02-16T02:06:40.762Z,957.22
2023-02-16T02:06:51.764Z,957.22
2023-02-16T02:07:02.786Z,957.21
2023-02-16T02:07:14.765Z,957.21
2023-02-16T02:07:25.785Z,957.20
2023-02-16T02:07:37.766Z,957.20
2023-02-16T02:07:49.740Z,957.20
2023-02-16T02:08:00.742Z,957.20
2023-02-16T02:08:11.748Z,957.20
2023-02-16T02:08:22.784Z,957.21
2023-02-16T02:08:34.771Z,957.20
2023-02-16T02:08:46.764Z,957.21
2023-02-16T02:08:57.780Z,957.22
2023-02-16T02:09:08.789Z,957.22
2023-02-16T02:09:20.760Z,957.23
2023-02-16T02:09:31.779Z,957.23
2023-02-16T02:09:43.766Z,957.23
2023-02-16T02:09:55.756Z,957.23
2023-02-16T02:10:06.763Z,957.24
2023-02-16T02:10:17.778Z,957.24
2023-02-16T02:10:29.767Z,957.24
2023-02-16T02:10:41.757Z,957.24
2023-02-16T02:10:52.773Z,957.23
2023-02-16T02:11:05.115Z,957.23
2023-02-16T02:11:15.774Z,957.22
2023-02-16T02:11:27.753Z,957.22
2023-02-16T02:11:38.764Z,957.21
2023-02-16T02:11:49.757Z,957.20
2023-02-16T02:12:00.749Z,957.19
2023-02-16T02:12:12.768Z,957.19
2023-02-16T02:12:23.770Z,957.18
2023-02-16T02:12:34.763Z,957.17
2023-02-16T02:12:45.788Z,957.17
2023-02-16T02:12:57.801Z,957.17
2023-02-16T02:13:08.740Z,957.16
2023-02-16T02:13:19.800Z,957.16
2023-02-16T02:13:31.775Z,957.15
2023-02-16T02:13:42.784Z,957.14
2023-02-16T02:13:54.776Z,957.13
2023-02-16T02:14:05.779Z,957.13
2023-02-16T02:14:17.751Z,957.13
2023-02-16T02:14:28.754Z,957.13
2023-02-16T02:14:39.755Z,957.14
2023-02-16T02:14:50.761Z,957.14
2023-02-16T02:15:01.775Z,957.14
2023-02-16T02:15:12.765Z,957.13
2023-02-16T02:15:23.778Z,957.13
2023-02-16T02:15:35.768Z,957.14
2023-02-16T02:15:46.817Z,957.15
2023-02-16T02:15:58.913Z,957.16
2023-02-16T02:16:10.828Z,957.17
2023-02-16T02:16:22.779Z,957.17
2023-02-16T02:16:33.813Z,957.18
2023-02-16T02:16:45.789Z,957.18
2023-02-16T02:16:57.760Z,957.18
2023-02-16T02:19:17.814Z,957.24
2023-02-16T02:19:29.774Z,957.23
2023-02-16T02:19:41.778Z,957.22
2023-02-16T02:19:52.776Z,957.22
2023-02-16T02:20:03.764Z,957.21
2023-02-16T02:20:14.775Z,957.21
2023-02-16T02:20:26.770Z,957.20
2023-02-16T02:20:37.779Z,957.19
2023-02-16T02:20:48.785Z,957.19
2023-02-16T02:21:00.753Z,957.19
2023-02-16T02:21:11.758Z,957.20
2023-02-16T02:21:23.769Z,957.20
2023-02-16T02:21:35.756Z,957.20
2023-02-16T02:21:46.762Z,957.19
2023-02-16T02:21:57.764Z,957.19
2023-02-16T02:22:08.794Z,957.19
2023-02-16T02:22:20.754Z,957.18
2023-02-16T02:22:32.742Z,957.18
2023-02-16T02:22:43.870Z,957.18
2023-02-16T02:22:55.754Z,957.18
2023-02-16T02:23:06.768Z,957.17
2023-02-16T02:23:18.775Z,957.17
2023-02-16T02:23:29.765Z,957.17
2023-02-16T02:23:40.777Z,957.17
2023-02-16T02:23:52.746Z,957.17
2023-02-16T02:24:04.756Z,957.17
2023-02-16T02:24:16.591Z,957.16
2023-02-16T02:24:26.718Z,957.16
2023-02-16T02:24:37.721Z,957.16
2023-02-16T02:24:48.730Z,957.16
2023-02-16T02:24:59.742Z,957.16
2023-02-16T02:25:10.741Z,957.16
2023-02-16T02:25:21.763Z,957.16
2023-02-16T02:25:32.764Z,957.16
2023-02-16T02:25:43.767Z,957.16
2023-02-16T02:25:55.781Z,957.16
2023-02-16T02:26:06.727Z,957.16
2023-02-16T02:26:17.750Z,957.16
2023-02-16T02:26:28.746Z,957.16
2023-02-16T02:26:39.750Z,957.16
2023-02-16T02:26:50.753Z,957.15
2023-02-16T02:27:01.746Z,957.15
2023-02-16T02:27:12.748Z,957.15
2023-02-16T02:27:23.743Z,957.14
2023-02-16T02:27:34.755Z,957.14
2023-02-16T02:27:46.749Z,957.13
2023-02-16T02:27:57.735Z,957.13
2023-02-16T02:28:08.756Z,957.13
2023-02-16T02:28:20.741Z,957.14
2023-02-16T02:28:31.749Z,957.14
2023-02-16T02:28:42.746Z,957.13
2023-02-16T02:28:54.768Z,957.13
2023-02-16T02:29:06.750Z,957.13
2023-02-16T02:29:17.795Z,957.13
2023-02-16T02:29:29.771Z,957.13
2023-02-16T02:29:40.775Z,957.13
2023-02-16T02:29:51.803Z,957.13
2023-02-16T02:30:03.845Z,957.13
2023-02-16T02:30:14.813Z,957.13
2023-02-16T02:30:25.821Z,957.13
2023-02-16T02:30:36.761Z,957.14
2023-02-16T02:30:47.788Z,957.14
2023-02-16T02:30:58.791Z,957.15
2023-02-16T02:31:09.941Z,957.16
2023-02-16T02:31:20.942Z,957.16
2023-02-16T02:31:32.858Z,957.17
2023-02-16T02:31:44.868Z,957.18
2023-02-16T02:31:55.871Z,957.18
2023-02-16T02:32:06.804Z,957.18
2023-02-16T02:32:18.800Z,957.18
2023-02-16T02:32:29.750Z,957.17
2023-02-16T02:32:40.755Z,957.16
2023-02-16T02:32:51.752Z,957.16
2023-02-16T02:33:02.745Z,957.16
2023-02-16T02:33:13.785Z,957.16
2023-02-16T03:03:25.999Z,957.15
2023-02-16T03:03:36.805Z,957.14
2023-02-16T03:03:48.768Z,957.14
2023-02-16T03:03:59.787Z,957.14
2023-02-16T03:04:10.800Z,957.15
2023-02-16T03:04:22.781Z,957.15
2023-02-16T03:04:34.777Z,957.15
2023-02-16T03:04:45.785Z,957.15
2023-02-16T03:04:56.796Z,957.15
2023-02-16T03:05:08.765Z,957.15
2023-02-16T03:05:19.777Z,957.16
2023-02-16T03:05:30.773Z,957.16
2023-02-16T03:05:42.777Z,957.16
2023-02-16T03:05:54.760Z,957.16
2023-02-16T03:06:05.765Z,957.16
2023-02-16T03:06:16.800Z,957.15
2023-02-16T03:06:28.755Z,957.16
2023-02-16T03:06:39.753Z,957.16
2023-02-16T03:06:50.760Z,957.16
2023-02-16T03:07:01.757Z,957.16
2023-02-16T03:07:12.757Z,957.16
2023-02-16T03:07:23.769Z,957.16
2023-02-16T03:07:34.770Z,957.15
2023-02-16T03:07:45.775Z,957.15
2023-02-16T03:07:57.768Z,957.15
2023-02-16T03:08:09.748Z,957.15
2023-02-16T03:08:20.781Z,957.15
2023-02-16T03:08:31.780Z,957.14
2023-02-16T03:08:43.745Z,957.14
2023-02-16T03:08:55.755Z,957.13
2023-02-16T03:09:06.747Z,957.12
2023-02-16T03:09:17.758Z,957.12
2023-02-16T03:09:28.778Z,957.11
2023-02-16T03:09:40.752Z,957.11
2023-02-16T03:09:51.761Z,957.10
2023-02-16T03:10:02.757Z,957.10
2023-02-16T03:10:13.775Z,957.10
2023-02-16T03:10:24.776Z,957.10
2023-02-16T03:10:35.777Z,957.10
2023-02-16T03:10:47.772Z,957.11
2023-02-16T03:10:58.773Z,957.11
2023-02-16T03:11:10.765Z,957.10
2023-02-16T03:11:21.774Z,957.10
2023-02-16T03:11:32.779Z,957.10
2023-02-16T03:11:45.711Z,957.09
2023-02-16T03:11:55.737Z,957.08
2023-02-16T03:12:06.745Z,957.09
2023-02-16T03:12:17.772Z,957.08
2023-02-16T03:12:28.774Z,957.09
2023-02-16T03:12:40.756Z,957.08
2023-02-16T03:12:52.755Z,957.07
2023-02-16T03:13:03.762Z,957.06
2023-02-16T03:13:14.762Z,957.06
2023-02-16T03:13:25.763Z,957.05
2023-02-16T03:13:37.790Z,957.04
2023-02-16T03:13:49.761Z,957.04
2023-02-16T03:14:00.756Z,957.04
2023-02-16T03:14:11.764Z,957.04
2023-02-16T03:14:22.765Z,957.03
2023-02-16T03:14:33.782Z,957.02
2023-02-16T03:14:45.748Z,957.02
2023-02-16T03:14:56.736Z,957.02
2023-02-16T03:15:07.766Z,957.02
2023-02-16T03:15:18.767Z,957.02
2023-02-16T03:15:29.779Z,957.02
2023-02-16T03:15:40.778Z,957.02
2023-02-16T03:15:52.741Z,957.01
2023-02-16T03:16:03.767Z,957.01
2023-02-16T03:16:14.839Z,957.01
2023-02-16T03:16:25.809Z,957.01
2023-02-16T03:16:37.880Z,957.00
2023-02-16T03:16:49.806Z,956.99
2023-02-16T03:17:01.777Z,956.99
2023-02-16T03:17:13.754Z,956.99
2023-02-16T03:17:24.750Z,956.99
2023-02-16T03:17:35.757Z,956.98
2023-02-16T03:17:46.767Z,956.98
2023-02-16T03:17:57.770Z,956.99
2023-02-16T03:18:09.750Z,956.99
2023-02-16T03:18:20.747Z,956.99
2023-02-16T03:18:31.805Z,956.99
2023-02-16T03:18:42.817Z,956.99
2023-02-16T03:18:54.791Z,956.99
2023-02-16T03:19:05.779Z,957.00
2023-02-16T03:19:17.753Z,956.99
2023-02-16T03:19:28.782Z,956.99
2023-02-16T03:19:39.773Z,956.99
2023-02-16T03:19:51.756Z,956.99
2023-02-16T03:20:02.797Z,957.00
2023-02-16T03:20:14.800Z,956.99
2023-02-16T03:20:26.752Z,956.99
2023-02-16T03:20:37.748Z,957.00
2023-02-16T03:20:48.761Z,957.00
2023-02-16T03:20:59.762Z,957.00
2023-02-16T03:21:10.769Z,957.00
2023-02-16T03:28:37.145Z,956.97
2023-02-16T03:28:47.756Z,956.96
2023-02-16T03:28:58.748Z,956.96
2023-02-16T03:29:09.753Z,956.97
2023-02-16T03:29:20.741Z,956.97
2023-02-16T03:29:31.750Z,956.97
2023-02-16T03:29:42.753Z,956.97
2023-02-16T03:29:53.779Z,956.97
2023-02-16T03:30:04.822Z,956.97
2023-02-16T03:30:15.859Z,956.97
2023-02-16T03:30:28.011Z,956.97
2023-02-16T03:30:39.836Z,956.97
2023-02-16T03:30:50.832Z,956.97
2023-02-16T03:31:02.073Z,956.97
2023-02-16T03:31:12.886Z,956.97
2023-02-16T03:31:23.842Z,956.97
2023-02-16T03:31:34.957Z,956.98
2023-02-16T03:31:45.794Z,956.98
2023-02-16T03:31:56.879Z,956.98
2023-02-16T03:32:08.803Z,956.98
2023-02-16T03:32:20.796Z,956.98
2023-02-16T03:32:32.770Z,956.98
2023-02-16T03:32:44.638Z,956.98
2023-02-16T03:32:54.807Z,956.99